sensor_id;sensor_type;location;lat;lon;timestamp;pressure;altitude;pressure_sealevel;temperature;humidity
40788;BME280;26497;52.494;7.546;2022-12-07T00:00:53;100901.03;;;9.21;66.55
40788;BME280;26497;52.494;7.546;2022-12-07T00:03:21;100889.56;;;9.11;66.57
40788;BME280;26497;52.494;7.546;2022-12-07T00:05:48;100885.97;;;9.03;66.34
40788;BME280;26497;52.494;7.546;2022-12-07T00:08:15;100894.69;;;9.00;66.10
40788;BME280;26497;52.494;7.546;2022-12-07T00:10:42;100891.91;;;8.84;66.14
40788;BME280;26497;52.494;7.546;2022-12-07T00:13:09;100897.06;;;8.75;65.88
40788;BME280;26497;52.494;7.546;2022-12-07T00:15:36;100896.06;;;8.62;66.45
40788;BME280;26497;52.494;7.546;2022-12-07T00:18:03;100891.56;;;8.52;66.63
40788;BME280;26497;52.494;7.546;2022-12-07T00:20:32;100894.94;;;8.43;66.75
40788;BME280;26497;52.494;7.546;2022-12-07T00:22:59;100890.47;;;8.37;66.35
40788;BME280;26497;52.494;7.546;2022-12-07T00:25:26;100888.63;;;8.30;66.37
40788;BME280;26497;52.494;7.546;2022-12-07T00:27:53;100883.25;;;8.19;66.68
40788;BME280;26497;52.494;7.546;2022-12-07T00:30:22;100890.13;;;8.08;66.69
40788;BME280;26497;52.494;7.546;2022-12-07T00:32:49;100879.63;;;8.08;66.30
40788;BME280;26497;52.494;7.546;2022-12-07T00:35:16;100874.22;;;7.99;66.43
40788;BME280;26497;52.494;7.546;2022-12-07T00:37:44;100881.97;;;7.89;66.55
40788;BME280;26497;52.494;7.546;2022-12-07T00:40:12;100882.78;;;7.85;66.68
40788;BME280;26497;52.494;7.546;2022-12-07T00:42:39;100883.69;;;7.87;66.17
40788;BME280;26497;52.494;7.546;2022-12-07T00:45:08;100875.72;;;7.79;66.76
40788;BME280;26497;52.494;7.546;2022-12-07T00:47:35;100876.63;;;7.81;66.62
40788;BME280;26497;52.494;7.546;2022-12-07T00:50:02;100875.69;;;7.78;66.50
40788;BME280;26497;52.494;7.546;2022-12-07T00:52:29;100872.22;;;7.79;66.22
40788;BME280;26497;52.494;7.546;2022-12-07T00:54:58;100870.19;;;7.61;66.92
40788;BME280;26497;52.494;7.546;2022-12-07T00:57:25;100871.22;;;7.71;66.50
40788;BME280;26497;52.494;7.546;2022-12-07T00:59:51;100871.97;;;7.63;66.56
40788;BME280;26497;52.494;7.546;2022-12-07T01:02:21;100872.06;;;7.68;66.58
40788;BME280;26497;52.494;7.546;2022-12-07T01:04:48;100864.13;;;7.65;66.91
40788;BME280;26497;52.494;7.546;2022-12-07T01:07:15;100871.22;;;7.71;67.12
40788;BME280;26497;52.494;7.546;2022-12-07T01:09:42;100858.06;;;7.69;67.24
40788;BME280;26497;52.494;7.546;2022-12-07T01:12:10;100861.56;;;7.70;66.52
40788;BME280;26497;52.494;7.546;2022-12-07T01:14:37;100865.91;;;7.67;67.26
40788;BME280;26497;52.494;7.546;2022-12-07T01:17:04;100858.91;;;7.66;67.42
40788;BME280;26497;52.494;7.546;2022-12-07T01:19:31;100855.41;;;7.67;67.08
40788;BME280;26497;52.494;7.546;2022-12-07T01:21:58;100861.38;;;7.57;67.04
40788;BME280;26497;52.494;7.546;2022-12-07T01:24:25;100858.72;;;7.54;67.30
40788;BME280;26497;52.494;7.546;2022-12-07T01:26:52;100859.59;;;7.55;67.49
40788;BME280;26497;52.494;7.546;2022-12-07T01:29:20;100856.13;;;7.56;67.24
40788;BME280;26497;52.494;7.546;2022-12-07T01:31:49;100863.97;;;7.54;67.46
40788;BME280;26497;52.494;7.546;2022-12-07T01:34:16;100860.41;;;7.50;67.75
40788;BME280;26497;52.494;7.546;2022-12-07T01:36:43;100856.94;;;7.51;67.47
40788;BME280;26497;52.494;7.546;2022-12-07T01:39:10;100863.09;;;7.55;67.71
40788;BME280;26497;52.494;7.546;2022-12-07T01:41:39;100867.53;;;7.59;67.98
40788;BME280;26497;52.494;7.546;2022-12-07T01:44:17;100872.84;;;7.62;69.22
40788;BME280;26497;52.494;7.546;2022-12-07T01:46:48;100872.00;;;7.65;69.68
40788;BME280;26497;52.494;7.546;2022-12-07T01:49:27;100883.56;;;7.76;70.16
40788;BME280;26497;52.494;7.546;2022-12-07T01:52:03;100877.50;;;7.82;70.51
40788;BME280;26497;52.494;7.546;2022-12-07T01:54:33;100879.44;;;7.97;70.04
40788;BME280;26497;52.494;7.546;2022-12-07T01:57:01;100880.38;;;8.01;70.16
40788;BME280;26497;52.494;7.546;2022-12-07T01:59:29;100872.50;;;8.02;70.53
40788;BME280;26497;52.494;7.546;2022-12-07T02:01:57;100865.66;;;8.12;70.35
40788;BME280;26497;52.494;7.546;2022-12-07T02:04:25;100868.38;;;8.20;69.84
40788;BME280;26497;52.494;7.546;2022-12-07T02:06:52;100871.88;;;8.20;69.79
40788;BME280;26497;52.494;7.546;2022-12-07T02:09:20;100871.03;;;8.23;69.71
40788;BME280;26497;52.494;7.546;2022-12-07T02:11:47;100867.41;;;8.13;69.83
40788;BME280;26497;52.494;7.546;2022-12-07T02:14:14;100858.69;;;8.16;69.97
40788;BME280;26497;52.494;7.546;2022-12-07T02:16:54;100858.63;;;8.11;69.57
40788;BME280;26497;52.494;7.546;2022-12-07T02:29:35;100858.22;;;7.80;69.00
40788;BME280;26497;52.494;7.546;2022-12-07T02:32:08;100853.03;;;7.85;69.67
40788;BME280;26497;52.494;7.546;2022-12-07T02:34:47;100864.50;;;7.91;69.82
40788;BME280;26497;52.494;7.546;2022-12-07T02:37:27;100860.97;;;7.89;70.17
40788;BME280;26497;52.494;7.546;2022-12-07T02:40:01;100861.09;;;7.99;69.81
40788;BME280;26497;52.494;7.546;2022-12-07T02:42:39;100864.66;;;8.04;69.13
40788;BME280;26497;52.494;7.546;2022-12-07T02:45:12;100850.59;;;7.99;68.76
40788;BME280;26497;52.494;7.546;2022-12-07T02:47:41;100850.56;;;7.95;68.94
40788;BME280;26497;52.494;7.546;2022-12-07T02:50:09;100855.81;;;7.97;68.37
40788;BME280;26497;52.494;7.546;2022-12-07T02:52:36;100858.44;;;7.97;68.35
40788;BME280;26497;52.494;7.546;2022-12-07T02:55:04;100839.19;;;7.98;67.84
40788;BME280;26497;52.494;7.546;2022-12-07T02:57:49;100847.75;;;7.83;67.85
40788;BME280;26497;52.494;7.546;2022-12-07T03:00:21;100847.59;;;7.71;68.11
40788;BME280;26497;52.494;7.546;2022-12-07T03:02:53;100849.19;;;7.61;67.94
40788;BME280;26497;52.494;7.546;2022-12-07T03:05:44;100841.19;;;7.53;68.41
40788;BME280;26497;52.494;7.546;2022-12-07T03:08:23;100851.59;;;7.45;68.57
40788;BME280;26497;52.494;7.546;2022-12-07T03:10:57;100848.03;;;7.42;68.61
40788;BME280;26497;52.494;7.546;2022-12-07T03:13:30;100846.41;;;7.50;68.23
40788;BME280;26497;52.494;7.546;2022-12-07T03:16:07;100844.81;;;7.60;68.11
40788;BME280;26497;52.494;7.546;2022-12-07T03:18:39;100836.94;;;7.60;68.22
40788;BME280;26497;52.494;7.546;2022-12-07T03:21:13;100840.44;;;7.60;68.19
40788;BME280;26497;52.494;7.546;2022-12-07T03:23:44;100836.91;;;7.57;68.01
40788;BME280;26497;52.494;7.546;2022-12-07T03:26:14;100836.81;;;7.50;67.92
40788;BME280;26497;52.494;7.546;2022-12-07T03:28:48;100835.94;;;7.53;67.97
40788;BME280;26497;52.494;7.546;2022-12-07T03:31:19;100842.81;;;7.45;68.71
40788;BME280;26497;52.494;7.546;2022-12-07T03:33:53;100836.66;;;7.43;68.94
40788;BME280;26497;52.494;7.546;2022-12-07T03:36:30;100834.94;;;7.43;68.49
40788;BME280;26497;52.494;7.546;2022-12-07T03:39:11;100837.66;;;7.51;68.25
40788;BME280;26497;52.494;7.546;2022-12-07T03:41:40;100835.09;;;7.52;68.34
40788;BME280;26497;52.494;7.546;2022-12-07T03:44:08;100831.69;;;7.61;68.59
40788;BME280;26497;52.494;7.546;2022-12-07T03:46:42;100831.88;;;7.74;68.09
40788;BME280;26497;52.494;7.546;2022-12-07T03:49:18;100829.34;;;7.80;68.30
40788;BME280;26497;52.494;7.546;2022-12-07T03:51:54;100837.28;;;7.86;68.59
40788;BME280;26497;52.494;7.546;2022-12-07T03:54:28;100832.25;;;8.02;68.37
40788;BME280;26497;52.494;7.546;2022-12-07T03:56:56;100834.78;;;7.95;68.83
40788;BME280;26497;52.494;7.546;2022-12-07T03:59:25;100834.09;;;8.09;68.65
40788;BME280;26497;52.494;7.546;2022-12-07T04:01:57;100829.00;;;8.23;68.34
40788;BME280;26497;52.494;7.546;2022-12-07T04:04:28;100836.94;;;8.27;68.42
40788;BME280;26497;52.494;7.546;2022-12-07T04:06:55;100834.31;;;8.29;68.05
40788;BME280;26497;52.494;7.546;2022-12-07T04:09:22;100829.84;;;8.20;68.06
40788;BME280;26497;52.494;7.546;2022-12-07T04:11:49;100831.47;;;8.09;67.79
40788;BME280;26497;52.494;7.546;2022-12-07T04:14:16;100834.84;;;7.99;67.89
40788;BME280;26497;52.494;7.546;2022-12-07T04:16:47;100847.06;;;7.95;68.58
40788;BME280;26497;52.494;7.546;2022-12-07T04:19:16;100841.72;;;7.90;69.16
40788;BME280;26497;52.494;7.546;2022-12-07T04:21:44;100833.75;;;7.84;69.20
40788;BME280;26497;52.494;7.546;2022-12-07T04:24:12;100840.88;;;7.91;69.17
40788;BME280;26497;52.494;7.546;2022-12-07T04:26:40;100841.69;;;7.87;68.87
40788;BME280;26497;52.494;7.546;2022-12-07T04:29:07;100840.81;;;7.88;68.63
40788;BME280;26497;52.494;7.546;2022-12-07T04:31:34;100839.00;;;7.82;69.63
40788;BME280;26497;52.494;7.546;2022-12-07T04:34:01;100839.88;;;7.83;70.16
40788;BME280;26497;52.494;7.546;2022-12-07T04:36:30;100832.25;;;8.03;69.77
40788;BME280;26497;52.494;7.546;2022-12-07T04:38:58;100834.06;;;8.07;69.40
40788;BME280;26497;52.494;7.546;2022-12-07T04:41:25;100832.44;;;8.17;68.71
40788;BME280;26497;52.494;7.546;2022-12-07T04:43:54;100834.22;;;8.18;68.34
40788;BME280;26497;52.494;7.546;2022-12-07T04:46:22;100834.97;;;8.09;68.52
40788;BME280;26497;52.494;7.546;2022-12-07T04:48:49;100833.19;;;8.07;68.40
40788;BME280;26497;52.494;7.546;2022-12-07T04:51:20;100831.38;;;8.03;68.35
40788;BME280;26497;52.494;7.546;2022-12-07T04:53:49;100839.19;;;7.96;68.52
40788;BME280;26497;52.494;7.546;2022-12-07T04:56:17;100837.38;;;7.92;69.07
40788;BME280;26497;52.494;7.546;2022-12-07T04:58:46;100832.22;;;8.00;69.50
40788;BME280;26497;52.494;7.546;2022-12-07T05:01:14;100827.84;;;8.01;69.93
40788;BME280;26497;52.494;7.546;2022-12-07T05:03:42;100822.72;;;8.11;69.43
40788;BME280;26497;52.494;7.546;2022-12-07T05:06:11;100826.38;;;8.21;68.64
40788;BME280;26497;52.494;7.546;2022-12-07T05:08:38;100835.91;;;8.15;68.81
40788;BME280;26497;52.494;7.546;2022-12-07T05:11:07;100830.56;;;8.08;67.64
40788;BME280;26497;52.494;7.546;2022-12-07T05:13:35;100823.38;;;7.93;67.50
40788;BME280;26497;52.494;7.546;2022-12-07T05:16:03;100829.31;;;7.78;67.97
40788;BME280;26497;52.494;7.546;2022-12-07T05:18:30;100835.44;;;7.77;68.23
40788;BME280;26497;52.494;7.546;2022-12-07T05:20:57;100829.34;;;7.80;68.30
40788;BME280;26497;52.494;7.546;2022-12-07T05:23:24;100823.31;;;7.86;68.39
40788;BME280;26497;52.494;7.546;2022-12-07T05:25:50;100824.22;;;7.89;68.32
40788;BME280;26497;52.494;7.546;2022-12-07T05:28:19;100819.84;;;7.90;68.42
40788;BME280;26497;52.494;7.546;2022-12-07T05:30:46;100816.25;;;7.81;69.44
40788;BME280;26497;52.494;7.546;2022-12-07T05:33:13;100815.56;;;7.98;69.18
40788;BME280;26497;52.494;7.546;2022-12-07T05:35:40;100821.81;;;8.09;68.35
40788;BME280;26497;52.494;7.546;2022-12-07T05:38:07;100812.06;;;7.99;68.47
40788;BME280;26497;52.494;7.546;2022-12-07T05:40:34;100813.91;;;8.05;68.24
40788;BME280;26497;52.494;7.546;2022-12-07T05:43:01;100808.59;;;8.02;68.12
40788;BME280;26497;52.494;7.546;2022-12-07T05:45:28;100814.00;;;8.16;67.76
40788;BME280;26497;52.494;7.546;2022-12-07T05:47:55;100814.84;;;8.11;67.22
40788;BME280;26497;52.494;7.546;2022-12-07T05:50:22;100815.69;;;8.09;67.36
40788;BME280;26497;52.494;7.546;2022-12-07T05:52:49;100830.44;;;7.97;68.05
40788;BME280;26497;52.494;7.546;2022-12-07T05:55:16;100818.19;;;7.98;67.84
40788;BME280;26497;52.494;7.546;2022-12-07T05:57:43;100814.47;;;7.82;67.79
40788;BME280;26497;52.494;7.546;2022-12-07T06:00:32;100822.31;;;7.77;66.92
40788;BME280;26497;52.494;7.546;2022-12-07T06:02:58;100816.91;;;7.66;66.88
40788;BME280;26497;52.494;7.546;2022-12-07T06:05:25;100809.69;;;7.53;66.37
40788;BME280;26497;52.494;7.546;2022-12-07T06:07:52;100822.69;;;7.44;66.66
40788;BME280;26497;52.494;7.546;2022-12-07T06:10:19;100812.91;;;7.33;66.38
40788;BME280;26497;52.494;7.546;2022-12-07T06:12:46;100814.63;;;7.28;66.01
40788;BME280;26497;52.494;7.546;2022-12-07T06:15:12;100818.81;;;7.17;66.22
40788;BME280;26497;52.494;7.546;2022-12-07T06:17:41;100818.69;;;7.11;66.13
40788;BME280;26497;52.494;7.546;2022-12-07T06:20:08;100821.19;;;7.03;65.79
40788;BME280;26497;52.494;7.546;2022-12-07T06:22:35;100818.34;;;6.89;66.68
40788;BME280;26497;52.494;7.546;2022-12-07T06:25:03;100820.91;;;6.86;66.45
40788;BME280;26497;52.494;7.546;2022-12-07T06:27:30;100819.09;;;6.83;66.31
40788;BME280;26497;52.494;7.546;2022-12-07T06:29:58;100822.44;;;6.74;66.57
40788;BME280;26497;52.494;7.546;2022-12-07T06:32:31;100819.13;;;6.85;67.06
40788;BME280;26497;52.494;7.546;2022-12-07T06:34:59;100831.50;;;6.92;68.25
40788;BME280;26497;52.494;7.546;2022-12-07T06:37:26;100821.34;;;7.12;68.66
40788;BME280;26497;52.494;7.546;2022-12-07T06:39:53;100823.34;;;7.27;68.27
40788;BME280;26497;52.494;7.546;2022-12-07T06:42:20;100820.69;;;7.26;67.52
40788;BME280;26497;52.494;7.546;2022-12-07T06:44:47;100825.75;;;7.15;66.97
40788;BME280;26497;52.494;7.546;2022-12-07T06:47:14;100823.00;;;7.05;66.83
40788;BME280;26497;52.494;7.546;2022-12-07T06:49:41;100816.13;;;7.15;66.53
40788;BME280;26497;52.494;7.546;2022-12-07T06:52:10;100824.00;;;7.14;66.80
40788;BME280;26497;52.494;7.546;2022-12-07T06:54:37;100824.53;;;6.94;67.77
40788;BME280;26497;52.494;7.546;2022-12-07T06:57:04;100826.69;;;7.18;67.58
40788;BME280;26497;52.494;7.546;2022-12-07T06:59:31;100836.16;;;7.10;67.20
40788;BME280;26497;52.494;7.546;2022-12-07T07:01:57;100836.97;;;7.06;66.57
40788;BME280;26497;52.494;7.546;2022-12-07T07:04:24;100831.59;;;6.98;66.45
40788;BME280;26497;52.494;7.546;2022-12-07T07:06:51;100836.53;;;6.79;66.08
40788;BME280;26497;52.494;7.546;2022-12-07T07:09:20;100838.88;;;6.64;66.68
40788;BME280;26497;52.494;7.546;2022-12-07T07:11:47;100834.47;;;6.63;66.42
40788;BME280;26497;52.494;7.546;2022-12-07T07:14:14;100834.97;;;6.43;66.95
40788;BME280;26497;52.494;7.546;2022-12-07T07:16:44;100834.25;;;6.51;66.46
40788;BME280;26497;52.494;7.546;2022-12-07T07:19:11;100836.72;;;6.43;66.70
40788;BME280;26497;52.494;7.546;2022-12-07T07:21:38;100831.38;;;6.38;66.51
40788;BME280;26497;52.494;7.546;2022-12-07T07:24:06;100833.06;;;6.34;66.48
40788;BME280;26497;52.494;7.546;2022-12-07T07:26:35;100833.88;;;6.32;66.77
40788;BME280;26497;52.494;7.546;2022-12-07T07:29:02;100834.72;;;6.29;66.39
40788;BME280;26497;52.494;7.546;2022-12-07T07:31:28;100835.66;;;6.33;66.05
40788;BME280;26497;52.494;7.546;2022-12-07T07:33:55;100841.84;;;6.37;65.86
40788;BME280;26497;52.494;7.546;2022-12-07T07:36:22;100850.50;;;6.32;66.18
40788;BME280;26497;52.494;7.546;2022-12-07T07:38:49;100853.06;;;6.29;66.72
40788;BME280;26497;52.494;7.546;2022-12-07T07:41:16;100843.38;;;6.27;66.76
40788;BME280;26497;52.494;7.546;2022-12-07T07:43:45;100843.38;;;6.27;67.03
40788;BME280;26497;52.494;7.546;2022-12-07T07:46:12;100844.41;;;6.33;66.75
40788;BME280;26497;52.494;7.546;2022-12-07T07:48:39;100847.97;;;6.37;66.41
40788;BME280;26497;52.494;7.546;2022-12-07T07:51:06;100848.97;;;6.44;66.64
40788;BME280;26497;52.494;7.546;2022-12-07T07:53:34;100850.63;;;6.40;66.76
40788;BME280;26497;52.494;7.546;2022-12-07T07:56:00;100846.25;;;6.39;66.90
40788;BME280;26497;52.494;7.546;2022-12-07T07:58:28;100848.06;;;6.42;66.52
40788;BME280;26497;52.494;7.546;2022-12-07T08:00:56;100847.16;;;6.41;66.59
40788;BME280;26497;52.494;7.546;2022-12-07T08:03:23;100859.47;;;6.45;66.56
40788;BME280;26497;52.494;7.546;2022-12-07T08:05:50;100846.50;;;6.52;66.42
40788;BME280;26497;52.494;7.546;2022-12-07T08:08:17;100845.88;;;6.65;66.39
40788;BME280;26497;52.494;7.546;2022-12-07T08:10:44;100845.94;;;6.68;66.96
40788;BME280;26497;52.494;7.546;2022-12-07T08:13:11;100847.00;;;6.79;67.64
40788;BME280;26497;52.494;7.546;2022-12-07T08:15:41;100852.59;;;6.98;67.68
40788;BME280;26497;52.494;7.546;2022-12-07T08:18:10;100843.88;;;6.99;67.70
40788;BME280;26497;52.494;7.546;2022-12-07T08:20:39;100854.56;;;7.12;67.47
40788;BME280;26497;52.494;7.546;2022-12-07T08:23:07;100854.84;;;7.29;67.04
40788;BME280;26497;52.494;7.546;2022-12-07T08:25:36;100852.22;;;7.30;67.08
40788;BME280;26497;52.494;7.546;2022-12-07T08:28:03;100846.25;;;7.41;67.75
40788;BME280;26497;52.494;7.546;2022-12-07T08:30:31;100842.19;;;7.61;67.75
40788;BME280;26497;52.494;7.546;2022-12-07T08:32:58;100848.56;;;7.77;67.37
40788;BME280;26497;52.494;7.546;2022-12-07T08:35:26;100847.84;;;7.89;67.93
40788;BME280;26497;52.494;7.546;2022-12-07T08:37:53;100844.44;;;7.96;68.07
40788;BME280;26497;52.494;7.546;2022-12-07T08:40:22;100848.88;;;8.01;67.94
40788;BME280;26497;52.494;7.546;2022-12-07T08:42:50;100861.13;;;8.02;68.13
40788;BME280;26497;52.494;7.546;2022-12-07T08:45:18;100855.81;;;7.95;69.20
40788;BME280;26497;52.494;7.546;2022-12-07T08:47:50;100853.34;;;8.08;68.58
40788;BME280;26497;52.494;7.546;2022-12-07T08:50:18;100853.44;;;8.16;67.76
40788;BME280;26497;52.494;7.546;2022-12-07T08:52:49;100858.56;;;8.05;67.76
40788;BME280;26497;52.494;7.546;2022-12-07T08:55:19;100870.09;;;8.16;67.66
40788;BME280;26497;52.494;7.546;2022-12-07T08:57:46;100862.19;;;8.16;67.59
40788;BME280;26497;52.494;7.546;2022-12-07T09:00:14;100866.69;;;8.25;67.74
40788;BME280;26497;52.494;7.546;2022-12-07T09:02:43;100863.31;;;8.34;68.39
40788;BME280;26497;52.494;7.546;2022-12-07T09:05:10;100868.81;;;8.52;69.22
40788;BME280;26497;52.494;7.546;2022-12-07T09:07:38;100864.75;;;8.84;69.14
40788;BME280;26497;52.494;7.546;2022-12-07T09:10:08;100869.03;;;8.77;69.88
40788;BME280;26497;52.494;7.546;2022-12-07T09:12:35;100857.69;;;8.81;70.21
40788;BME280;26497;52.494;7.546;2022-12-07T09:15:02;100853.38;;;8.90;69.56
40788;BME280;26497;52.494;7.546;2022-12-07T09:17:33;100860.56;;;9.05;69.17
40788;BME280;26497;52.494;7.546;2022-12-07T09:20:00;100859.66;;;9.03;68.27
40788;BME280;26497;52.494;7.546;2022-12-07T09:22:29;100854.25;;;8.89;68.53
40788;BME280;26497;52.494;7.546;2022-12-07T09:24:56;100849.78;;;8.78;68.20
40788;BME280;26497;52.494;7.546;2022-12-07T09:27:25;100852.56;;;8.92;67.67
40788;BME280;26497;52.494;7.546;2022-12-07T09:29:53;100842.91;;;8.91;68.04
40788;BME280;26497;52.494;7.546;2022-12-07T09:32:20;100849.19;;;9.09;68.41
40788;BME280;26497;52.494;7.546;2022-12-07T09:34:47;100854.41;;;9.04;68.60
40788;BME280;26497;52.494;7.546;2022-12-07T09:37:14;100846.50;;;9.04;69.81
40788;BME280;26497;52.494;7.546;2022-12-07T09:39:41;100849.31;;;9.26;70.13
40788;BME280;26497;52.494;7.546;2022-12-07T09:42:08;100853.84;;;9.42;69.36
40788;BME280;26497;52.494;7.546;2022-12-07T09:44:44;100855.66;;;9.50;68.99
40788;BME280;26497;52.494;7.546;2022-12-07T09:47:11;100851.19;;;9.41;68.00
40788;BME280;26497;52.494;7.546;2022-12-07T09:49:38;100848.63;;;9.53;67.25
40788;BME280;26497;52.494;7.546;2022-12-07T09:52:20;100843.22;;;9.30;66.27
40788;BME280;26497;52.494;7.546;2022-12-07T09:54:51;100853.69;;;9.24;66.87
40788;BME280;26497;52.494;7.546;2022-12-07T09:57:25;100853.75;;;9.30;66.88
40788;BME280;26497;52.494;7.546;2022-12-07T09:59:56;100843.31;;;9.42;67.33
40788;BME280;26497;52.494;7.546;2022-12-07T10:02:36;100846.13;;;9.72;68.57
40788;BME280;26497;52.494;7.546;2022-12-07T10:05:06;100842.75;;;9.96;68.04
40788;BME280;26497;52.494;7.546;2022-12-07T10:07:34;100842.91;;;10.33;68.20
40788;BME280;26497;52.494;7.546;2022-12-07T10:10:04;100840.38;;;10.58;66.94
40788;BME280;26497;52.494;7.546;2022-12-07T10:12:54;100842.13;;;10.56;65.09
40788;BME280;26497;52.494;7.546;2022-12-07T10:15:23;100840.25;;;10.33;65.46
40788;BME280;26497;52.494;7.546;2022-12-07T10:17:52;100842.13;;;10.56;65.47
40788;BME280;26497;52.494;7.546;2022-12-07T10:20:23;100837.75;;;10.68;65.82
40788;BME280;26497;52.494;7.546;2022-12-07T10:22:57;100836.88;;;10.66;64.68
40788;BME280;26497;52.494;7.546;2022-12-07T10:25:28;100841.25;;;10.56;64.35
40788;BME280;26497;52.494;7.546;2022-12-07T10:28:02;100837.69;;;10.43;64.80
40788;BME280;26497;52.494;7.546;2022-12-07T10:30:51;100840.25;;;10.26;64.55
40788;BME280;26497;52.494;7.546;2022-12-07T10:33:34;100843.03;;;10.57;66.13
40788;BME280;26497;52.494;7.546;2022-12-07T10:36:17;100848.31;;;10.74;65.15
40788;BME280;26497;52.494;7.546;2022-12-07T10:38:49;100828.94;;;10.67;64.68
40788;BME280;26497;52.494;7.546;2022-12-07T10:41:16;100836.88;;;10.66;64.06
40788;BME280;26497;52.494;7.546;2022-12-07T10:43:52;100834.25;;;10.80;63.56
40788;BME280;26497;52.494;7.546;2022-12-07T10:46:43;100827.19;;;10.65;62.46
40788;BME280;26497;52.494;7.546;2022-12-07T10:49:55;100831.47;;;10.31;61.45
40788;BME280;26497;52.494;7.546;2022-12-07T10:52:45;100828.91;;;10.41;63.06
40788;BME280;26497;52.494;7.546;2022-12-07T10:55:23;100827.19;;;10.55;63.30
40788;BME280;26497;52.494;7.546;2022-12-07T10:58:14;100814.94;;;10.95;63.38
40788;BME280;26497;52.494;7.546;2022-12-07T11:00:54;100817.56;;;11.23;62.53
40788;BME280;26497;52.494;7.546;2022-12-07T11:03:55;100808.72;;;11.42;60.48
40788;BME280;26497;52.494;7.546;2022-12-07T11:06:34;100797.22;;;11.73;61.15
40788;BME280;26497;52.494;7.546;2022-12-07T11:12:13;100791.88;;;11.91;58.35
40788;BME280;26497;52.494;7.546;2022-12-07T11:14:50;100797.09;;;12.15;58.48
40788;BME280;26497;52.494;7.546;2022-12-07T11:17:28;100791.72;;;12.29;56.31
40788;BME280;26497;52.494;7.546;2022-12-07T11:20:14;100785.69;;;11.97;53.86
40788;BME280;26497;52.494;7.546;2022-12-07T11:22:51;100783.03;;;11.97;53.56
40788;BME280;26497;52.494;7.546;2022-12-07T11:25:26;100785.72;;;11.85;54.06
40788;BME280;26497;52.494;7.546;2022-12-07T11:28:13;100778.66;;;11.93;54.22
40788;BME280;26497;52.494;7.546;2022-12-07T11:30:53;100785.69;;;12.06;54.13
40788;BME280;26497;52.494;7.546;2022-12-07T11:33:32;100778.75;;;11.65;54.30
40788;BME280;26497;52.494;7.546;2022-12-07T11:36:17;100772.56;;;11.72;54.85
40788;BME280;26497;52.494;7.546;2022-12-07T11:38:53;100763.66;;;11.95;54.85
40788;BME280;26497;52.494;7.546;2022-12-07T11:41:26;100764.53;;;12.03;54.98
40788;BME280;26497;52.494;7.546;2022-12-07T11:43:59;100764.50;;;12.13;53.75
40788;BME280;26497;52.494;7.546;2022-12-07T11:46:45;100760.09;;;12.12;53.66
40788;BME280;26497;52.494;7.546;2022-12-07T11:49:19;100749.56;;;12.05;53.90
40788;BME280;26497;52.494;7.546;2022-12-07T11:51:51;100747.00;;;11.74;54.41
40788;BME280;26497;52.494;7.546;2022-12-07T11:54:25;100744.28;;;11.96;54.16
40788;BME280;26497;52.494;7.546;2022-12-07T11:56:56;100753.00;;;12.15;53.03
40788;BME280;26497;52.494;7.546;2022-12-07T11:59:35;100750.41;;;12.07;54.14
40788;BME280;26497;52.494;7.546;2022-12-07T12:02:13;100744.16;;;12.24;53.65
40788;BME280;26497;52.494;7.546;2022-12-07T12:04:51;100733.56;;;12.30;54.41
40788;BME280;26497;52.494;7.546;2022-12-07T12:07:25;100744.91;;;12.48;53.88
40788;BME280;26497;52.494;7.546;2022-12-07T12:09:56;100740.53;;;12.41;53.21
40788;BME280;26497;52.494;7.546;2022-12-07T12:15:47;100732.56;;;12.47;52.53
40788;BME280;26497;52.494;7.546;2022-12-07T12:21:23;100715.78;;;12.51;52.44
40788;BME280;26497;52.494;7.546;2022-12-07T12:24:00;100720.09;;;12.61;53.40
40788;BME280;26497;52.494;7.546;2022-12-07T12:26:32;100721.63;;;12.87;51.66
40788;BME280;26497;52.494;7.546;2022-12-07T12:29:03;100706.31;;;13.22;50.54
40788;BME280;26497;52.494;7.546;2022-12-07T12:31:38;100714.03;;;13.45;49.16
40788;BME280;26497;52.494;7.546;2022-12-07T12:34:38;100711.78;;;13.83;48.66
40788;BME280;26497;52.494;7.546;2022-12-07T12:37:42;100713.19;;;14.10;46.96
40788;BME280;26497;52.494;7.546;2022-12-07T12:40:51;100697.25;;;14.12;46.91
40788;BME280;26497;52.494;7.546;2022-12-07T12:43:51;100700.91;;;14.03;47.11
40788;BME280;26497;52.494;7.546;2022-12-07T12:46:49;100709.84;;;13.96;47.09
40788;BME280;26497;52.494;7.546;2022-12-07T12:52:56;100712.97;;;13.62;47.55
40788;BME280;26497;52.494;7.546;2022-12-07T12:56:21;100708.38;;;13.76;47.29
40788;BME280;26497;52.494;7.546;2022-12-07T12:59:23;100699.16;;;14.02;47.41
40788;BME280;26497;52.494;7.546;2022-12-07T13:01:56;100702.28;;;13.68;47.07
40788;BME280;26497;52.494;7.546;2022-12-07T13:04:51;100694.47;;;13.55;46.41
40788;BME280;26497;52.494;7.546;2022-12-07T13:07:56;100691.94;;;13.45;47.89
40788;BME280;26497;52.494;7.546;2022-12-07T13:10:41;100699.16;;;13.28;47.82
40788;BME280;26497;52.494;7.546;2022-12-07T13:13:34;100691.38;;;13.15;48.38
40788;BME280;26497;52.494;7.546;2022-12-07T13:16:40;100686.63;;;12.57;49.44
40788;BME280;26497;52.494;7.546;2022-12-07T13:19:59;100689.31;;;12.51;50.29
40788;BME280;26497;52.494;7.546;2022-12-07T13:22:53;100683.34;;;12.24;50.82
40788;BME280;26497;52.494;7.546;2022-12-07T13:25:44;100683.56;;;11.85;51.56
40788;BME280;26497;52.494;7.546;2022-12-07T13:28:17;100695.00;;;11.87;52.70
40788;BME280;26497;52.494;7.546;2022-12-07T13:31:13;100679.25;;;11.65;54.13
40788;BME280;26497;52.494;7.546;2022-12-07T13:33:44;100686.38;;;11.37;55.34
40788;BME280;26497;52.494;7.546;2022-12-07T13:36:19;100696.19;;;11.01;56.92
40788;BME280;26497;52.494;7.546;2022-12-07T13:38:56;100692.69;;;10.61;57.72
40788;BME280;26497;52.494;7.546;2022-12-07T13:41:27;100696.13;;;10.15;58.57
40788;BME280;26497;52.494;7.546;2022-12-07T13:44:01;100683.78;;;9.97;59.91
40788;BME280;26497;52.494;7.546;2022-12-07T13:46:44;100685.56;;;9.92;59.85